Saint Charles, Missouri
Current Conditions -  °F | °C
As of 10:54 AM on Friday 24 Oct 2014 (Local Time) from KSET Reporting Station
Haze Haze  
Wind Chill: 59°   Ceiling: 600
Heat Index: 59°   Visibility: 6mi
Dew Point: 56°   Wind: 5mph
Humidity: 90%   Direction: 340°NNW
Pressure: 30.12"   Gusts: NA
Location:  38.93°N, 90.43°W
Report Text: KSET 241554Z AUTO 34004KT 6SM BR OVC006 15/13 A3012 RMK AO2 SLP198 T01500133
Loading
Personal Weather Stations






























Interactive Weather Map New forecast layout! Learn more

10-Day Weather Forecast

Advertisements
Track Severe Weather on mobile